sensor_id;sensor_type;location;lat;lon;timestamp;P1;durP1;ratioP1;P2;durP2;ratioP2
5904;SDS011;2978;42.012;24.880;2023-06-26T06:44:15;8.97;;;6.57;;
5904;SDS011;2978;42.012;24.880;2023-06-26T06:46:40;14.87;;;7.00;;
5904;SDS011;2978;42.012;24.880;2023-06-26T06:49:06;12.13;;;7.70;;
5904;SDS011;2978;42.012;24.880;2023-06-26T06:51:31;23.10;;;7.80;;
5904;SDS011;2978;42.012;24.880;2023-06-26T06:53:56;21.73;;;7.60;;
5904;SDS011;2978;42.012;24.880;2023-06-26T06:56:22;9.00;;;6.63;;
5904;SDS011;2978;42.012;24.880;2023-06-26T06:58:47;13.50;;;6.87;;
5904;SDS011;2978;42.012;24.880;2023-06-26T07:01:13;11.40;;;7.67;;
5904;SDS011;2978;42.012;24.880;2023-06-26T07:03:39;11.47;;;6.80;;
5904;SDS011;2978;42.012;24.880;2023-06-26T07:06:05;10.37;;;7.77;;
5904;SDS011;2978;42.012;24.880;2023-06-26T07:08:30;9.20;;;6.53;;
5904;SDS011;2978;42.012;24.880;2023-06-26T07:10:56;13.97;;;7.30;;
5904;SDS011;2978;42.012;24.880;2023-06-26T07:13:25;10.43;;;7.50;;
5904;SDS011;2978;42.012;24.880;2023-06-26T07:15:50;10.40;;;7.10;;
5904;SDS011;2978;42.012;24.880;2023-06-26T07:18:17;15.53;;;7.70;;
5904;SDS011;2978;42.012;24.880;2023-06-26T07:20:42;17.00;;;7.27;;
5904;SDS011;2978;42.012;24.880;2023-06-26T07:23:08;13.80;;;6.20;;
5904;SDS011;2978;42.012;24.880;2023-06-26T07:25:34;6.97;;;5.60;;
5904;SDS011;2978;42.012;24.880;2023-06-26T07:28:00;8.80;;;6.30;;
5904;SDS011;2978;42.012;24.880;2023-06-26T07:30:25;10.83;;;6.73;;
5904;SDS011;2978;42.012;24.880;2023-06-26T07:32:53;9.70;;;6.53;;
5904;SDS011;2978;42.012;24.880;2023-06-26T07:35:19;7.87;;;5.40;;
5904;SDS011;2978;42.012;24.880;2023-06-26T07:37:44;14.30;;;6.30;;
5904;SDS011;2978;42.012;24.880;2023-06-26T07:40:10;13.03;;;5.43;;
5904;SDS011;2978;42.012;24.880;2023-06-26T07:42:36;8.80;;;5.87;;
5904;SDS011;2978;42.012;24.880;2023-06-26T07:45:02;11.10;;;6.37;;
5904;SDS011;2978;42.012;24.880;2023-06-26T07:47:35;12.50;;;6.80;;
5904;SDS011;2978;42.012;24.880;2023-06-26T07:50:01;8.30;;;6.17;;
5904;SDS011;2978;42.012;24.880;2023-06-26T07:52:26;10.93;;;7.13;;
5904;SDS011;2978;42.012;24.880;2023-06-26T07:54:52;10.47;;;6.03;;
5904;SDS011;2978;42.012;24.880;2023-06-26T07:57:17;7.90;;;4.80;;
5904;SDS011;2978;42.012;24.880;2023-06-26T07:59:42;9.80;;;6.30;;
5904;SDS011;2978;42.012;24.880;2023-06-26T08:02:08;8.17;;;5.20;;
5904;SDS011;2978;42.012;24.880;2023-06-26T08:04:33;7.57;;;5.07;;
5904;SDS011;2978;42.012;24.880;2023-06-26T08:06:59;10.40;;;5.03;;
5904;SDS011;2978;42.012;24.880;2023-06-26T08:09:26;10.07;;;4.93;;
5904;SDS011;2978;42.012;24.880;2023-06-26T08:11:54;10.50;;;5.07;;
5904;SDS011;2978;42.012;24.880;2023-06-26T08:14:20;7.33;;;5.07;;
5904;SDS011;2978;42.012;24.880;2023-06-26T08:16:46;13.10;;;5.60;;
5904;SDS011;2978;42.012;24.880;2023-06-26T08:19:15;13.60;;;5.47;;
5904;SDS011;2978;42.012;24.880;2023-06-26T08:21:41;8.40;;;5.53;;
5904;SDS011;2978;42.012;24.880;2023-06-26T08:24:07;13.77;;;4.90;;
5904;SDS011;2978;42.012;24.880;2023-06-26T08:26:33;10.13;;;5.10;;
5904;SDS011;2978;42.012;24.880;2023-06-26T08:28:59;11.63;;;5.60;;
5904;SDS011;2978;42.012;24.880;2023-06-26T08:31:25;14.50;;;5.90;;
5904;SDS011;2978;42.012;24.880;2023-06-26T08:33:50;10.73;;;6.20;;
5904;SDS011;2978;42.012;24.880;2023-06-26T08:36:15;10.23;;;5.00;;
5904;SDS011;2978;42.012;24.880;2023-06-26T08:38:41;9.53;;;5.20;;
5904;SDS011;2978;42.012;24.880;2023-06-26T08:41:07;10.10;;;5.57;;
5904;SDS011;2978;42.012;24.880;2023-06-26T08:43:33;7.73;;;5.60;;
5904;SDS011;2978;42.012;24.880;2023-06-26T08:45:59;18.73;;;5.80;;
5904;SDS011;2978;42.012;24.880;2023-06-26T08:48:25;6.33;;;4.90;;
5904;SDS011;2978;42.012;24.880;2023-06-26T08:50:52;7.00;;;5.40;;
5904;SDS011;2978;42.012;24.880;2023-06-26T08:56:03;16.03;;;5.47;;
5904;SDS011;2978;42.012;24.880;2023-06-26T08:58:29;11.93;;;5.90;;
5904;SDS011;2978;42.012;24.880;2023-06-26T09:00:55;8.50;;;5.07;;
5904;SDS011;2978;42.012;24.880;2023-06-26T09:03:22;17.70;;;7.97;;
5904;SDS011;2978;42.012;24.880;2023-06-26T09:05:50;14.50;;;7.27;;
5904;SDS011;2978;42.012;24.880;2023-06-26T09:08:15;15.20;;;8.00;;
5904;SDS011;2978;42.012;24.880;2023-06-26T09:10:41;27.07;;;9.63;;
5904;SDS011;2978;42.012;24.880;2023-06-26T09:13:06;16.97;;;11.10;;
5904;SDS011;2978;42.012;24.880;2023-06-26T09:15:38;15.73;;;8.83;;
5904;SDS011;2978;42.012;24.880;2023-06-26T09:18:07;15.33;;;9.07;;
5904;SDS011;2978;42.012;24.880;2023-06-26T09:20:33;13.37;;;7.93;;
5904;SDS011;2978;42.012;24.880;2023-06-26T09:22:58;14.17;;;8.87;;
5904;SDS011;2978;42.012;24.880;2023-06-26T09:25:25;11.90;;;7.83;;
5904;SDS011;2978;42.012;24.880;2023-06-26T09:27:51;16.00;;;8.70;;
5904;SDS011;2978;42.012;24.880;2023-06-26T09:30:17;14.23;;;8.20;;
5904;SDS011;2978;42.012;24.880;2023-06-26T09:32:43;15.50;;;8.70;;
5904;SDS011;2978;42.012;24.880;2023-06-26T09:35:10;17.60;;;8.30;;
5904;SDS011;2978;42.012;24.880;2023-06-26T09:37:35;10.80;;;7.60;;
5904;SDS011;2978;42.012;24.880;2023-06-26T09:40:01;12.00;;;8.33;;
5904;SDS011;2978;42.012;24.880;2023-06-26T09:42:28;12.10;;;7.53;;
5904;SDS011;2978;42.012;24.880;2023-06-26T09:44:54;14.60;;;7.47;;
5904;SDS011;2978;42.012;24.880;2023-06-26T09:47:20;13.73;;;7.80;;
5904;SDS011;2978;42.012;24.880;2023-06-26T09:49:46;12.10;;;8.47;;
5904;SDS011;2978;42.012;24.880;2023-06-26T09:52:14;9.27;;;8.00;;
5904;SDS011;2978;42.012;24.880;2023-06-26T09:54:42;11.10;;;8.10;;
5904;SDS011;2978;42.012;24.880;2023-06-26T09:57:10;10.37;;;8.43;;
5904;SDS011;2978;42.012;24.880;2023-06-26T09:59:38;8.97;;;7.73;;
5904;SDS011;2978;42.012;24.880;2023-06-26T10:02:05;17.23;;;8.47;;
5904;SDS011;2978;42.012;24.880;2023-06-26T10:04:31;12.00;;;8.07;;
5904;SDS011;2978;42.012;24.880;2023-06-26T10:06:58;10.50;;;7.17;;
5904;SDS011;2978;42.012;24.880;2023-06-26T10:09:26;9.50;;;6.47;;
5904;SDS011;2978;42.012;24.880;2023-06-26T10:11:56;14.77;;;7.50;;
5904;SDS011;2978;42.012;24.880;2023-06-26T10:14:26;13.10;;;6.23;;
5904;SDS011;2978;42.012;24.880;2023-06-26T10:16:52;15.17;;;6.23;;
5904;SDS011;2978;42.012;24.880;2023-06-26T10:19:23;12.80;;;6.80;;
5904;SDS011;2978;42.012;24.880;2023-06-26T10:21:54;23.23;;;7.00;;
5904;SDS011;2978;42.012;24.880;2023-06-26T10:24:21;22.67;;;7.20;;
5904;SDS011;2978;42.012;24.880;2023-06-26T10:26:49;16.73;;;5.90;;
5904;SDS011;2978;42.012;24.880;2023-06-26T10:29:17;10.97;;;5.40;;
5904;SDS011;2978;42.012;24.880;2023-06-26T10:31:45;12.10;;;5.60;;
5904;SDS011;2978;42.012;24.880;2023-06-26T10:34:13;12.33;;;7.83;;
5904;SDS011;2978;42.012;24.880;2023-06-26T10:36:39;16.20;;;8.50;;
5904;SDS011;2978;42.012;24.880;2023-06-26T10:39:06;12.43;;;8.70;;
5904;SDS011;2978;42.012;24.880;2023-06-26T10:41:38;16.77;;;8.70;;
5904;SDS011;2978;42.012;24.880;2023-06-26T10:49:21;12.67;;;7.87;;
5904;SDS011;2978;42.012;24.880;2023-06-26T10:51:51;16.77;;;7.47;;
5904;SDS011;2978;42.012;24.880;2023-06-26T10:54:19;17.60;;;8.60;;
5904;SDS011;2978;42.012;24.880;2023-06-26T10:56:48;10.50;;;7.37;;
5904;SDS011;2978;42.012;24.880;2023-06-26T10:59:18;9.87;;;7.60;;
5904;SDS011;2978;42.012;24.880;2023-06-26T11:01:46;12.70;;;8.20;;
5904;SDS011;2978;42.012;24.880;2023-06-26T11:10:50;11.63;;;6.87;;
5904;SDS011;2978;42.012;24.880;2023-06-26T11:13:17;10.07;;;7.50;;
5904;SDS011;2978;42.012;24.880;2023-06-26T11:15:44;10.13;;;6.83;;
5904;SDS011;2978;42.012;24.880;2023-06-26T11:18:10;10.40;;;7.27;;
5904;SDS011;2978;42.012;24.880;2023-06-26T11:20:37;8.37;;;6.83;;
5904;SDS011;2978;42.012;24.880;2023-06-26T11:23:03;10.30;;;5.77;;
5904;SDS011;2978;42.012;24.880;2023-06-26T11:25:33;11.53;;;6.00;;
5904;SDS011;2978;42.012;24.880;2023-06-26T11:28:00;12.73;;;7.50;;
5904;SDS011;2978;42.012;24.880;2023-06-26T11:30:25;20.43;;;6.47;;
5904;SDS011;2978;42.012;24.880;2023-06-26T11:41:54;15.93;;;6.50;;
5904;SDS011;2978;42.012;24.880;2023-06-26T11:44:19;8.63;;;4.73;;
5904;SDS011;2978;42.012;24.880;2023-06-26T11:52:56;8.93;;;6.10;;
5904;SDS011;2978;42.012;24.880;2023-06-26T11:55:26;9.77;;;5.20;;
5904;SDS011;2978;42.012;24.880;2023-06-26T11:57:53;8.00;;;5.07;;
5904;SDS011;2978;42.012;24.880;2023-06-26T12:00:19;13.23;;;5.83;;
5904;SDS011;2978;42.012;24.880;2023-06-26T12:02:45;12.17;;;5.70;;
5904;SDS011;2978;42.012;24.880;2023-06-26T12:05:11;13.73;;;5.73;;
5904;SDS011;2978;42.012;24.880;2023-06-26T12:07:50;12.57;;;5.77;;
5904;SDS011;2978;42.012;24.880;2023-06-26T12:10:19;11.73;;;6.00;;
5904;SDS011;2978;42.012;24.880;2023-06-26T12:12:45;11.73;;;4.77;;
5904;SDS011;2978;42.012;24.880;2023-06-26T12:15:13;11.37;;;5.50;;
5904;SDS011;2978;42.012;24.880;2023-06-26T12:17:40;8.33;;;5.23;;
5904;SDS011;2978;42.012;24.880;2023-06-26T12:20:16;20.70;;;5.03;;
5904;SDS011;2978;42.012;24.880;2023-06-26T12:22:43;7.47;;;4.50;;
5904;SDS011;2978;42.012;24.880;2023-06-26T12:25:11;13.03;;;5.50;;
5904;SDS011;2978;42.012;24.880;2023-06-26T12:27:36;9.83;;;5.07;;
5904;SDS011;2978;42.012;24.880;2023-06-26T12:30:03;5.87;;;4.17;;
5904;SDS011;2978;42.012;24.880;2023-06-26T12:32:29;13.40;;;5.20;;
5904;SDS011;2978;42.012;24.880;2023-06-26T12:34:55;11.27;;;5.57;;
5904;SDS011;2978;42.012;24.880;2023-06-26T12:37:21;14.67;;;5.97;;
5904;SDS011;2978;42.012;24.880;2023-06-26T12:39:51;10.57;;;5.37;;
5904;SDS011;2978;42.012;24.880;2023-06-26T12:42:25;14.57;;;6.80;;
5904;SDS011;2978;42.012;24.880;2023-06-26T12:44:52;9.00;;;5.30;;
5904;SDS011;2978;42.012;24.880;2023-06-26T12:47:23;10.40;;;5.53;;
5904;SDS011;2978;42.012;24.880;2023-06-26T12:49:53;9.60;;;5.30;;
5904;SDS011;2978;42.012;24.880;2023-06-26T12:52:19;12.07;;;4.83;;
5904;SDS011;2978;42.012;24.880;2023-06-26T12:54:46;14.50;;;5.90;;
5904;SDS011;2978;42.012;24.880;2023-06-26T12:57:12;8.53;;;4.90;;
5904;SDS011;2978;42.012;24.880;2023-06-26T12:59:41;15.33;;;5.03;;
5904;SDS011;2978;42.012;24.880;2023-06-26T13:02:06;13.07;;;5.37;;
5904;SDS011;2978;42.012;24.880;2023-06-26T13:04:33;8.67;;;5.00;;
5904;SDS011;2978;42.012;24.880;2023-06-26T13:06:59;7.63;;;5.23;;
5904;SDS011;2978;42.012;24.880;2023-06-26T13:09:24;9.73;;;5.23;;
5904;SDS011;2978;42.012;24.880;2023-06-26T13:11:53;9.43;;;4.90;;
5904;SDS011;2978;42.012;24.880;2023-06-26T13:14:19;12.53;;;4.60;;
5904;SDS011;2978;42.012;24.880;2023-06-26T13:16:46;8.57;;;4.70;;
5904;SDS011;2978;42.012;24.880;2023-06-26T13:19:11;13.43;;;5.23;;
5904;SDS011;2978;42.012;24.880;2023-06-26T13:21:37;6.80;;;4.60;;
5904;SDS011;2978;42.012;24.880;2023-06-26T13:24:03;7.90;;;5.53;;
5904;SDS011;2978;42.012;24.880;2023-06-26T13:26:29;9.60;;;5.50;;
5904;SDS011;2978;42.012;24.880;2023-06-26T13:28:55;11.03;;;5.03;;
5904;SDS011;2978;42.012;24.880;2023-06-26T13:31:21;11.10;;;5.47;;
5904;SDS011;2978;42.012;24.880;2023-06-26T13:33:47;11.13;;;6.90;;
5904;SDS011;2978;42.012;24.880;2023-06-26T13:36:17;14.17;;;6.00;;
5904;SDS011;2978;42.012;24.880;2023-06-26T13:38:43;10.43;;;6.63;;
5904;SDS011;2978;42.012;24.880;2023-06-26T13:41:08;13.07;;;7.53;;
5904;SDS011;2978;42.012;24.880;2023-06-26T13:43:34;28.07;;;8.67;;
5904;SDS011;2978;42.012;24.880;2023-06-26T13:46:00;14.30;;;6.97;;
5904;SDS011;2978;42.012;24.880;2023-06-26T13:48:26;12.70;;;7.60;;
5904;SDS011;2978;42.012;24.880;2023-06-26T13:50:52;14.13;;;7.47;;
5904;SDS011;2978;42.012;24.880;2023-06-26T13:53:18;12.63;;;8.23;;
5904;SDS011;2978;42.012;24.880;2023-06-26T13:55:43;11.07;;;7.50;;
5904;SDS011;2978;42.012;24.880;2023-06-26T13:58:09;12.73;;;8.17;;
5904;SDS011;2978;42.012;24.880;2023-06-26T14:00:36;15.73;;;7.33;;
5904;SDS011;2978;42.012;24.880;2023-06-26T14:03:02;12.87;;;8.33;;
5904;SDS011;2978;42.012;24.880;2023-06-26T14:05:29;15.50;;;6.67;;
5904;SDS011;2978;42.012;24.880;2023-06-26T14:07:55;12.50;;;6.00;;
5904;SDS011;2978;42.012;24.880;2023-06-26T14:10:21;10.87;;;6.07;;
5904;SDS011;2978;42.012;24.880;2023-06-26T14:12:47;7.30;;;5.33;;
5904;SDS011;2978;42.012;24.880;2023-06-26T14:15:12;8.60;;;6.37;;
5904;SDS011;2978;42.012;24.880;2023-06-26T14:17:38;9.50;;;6.13;;
5904;SDS011;2978;42.012;24.880;2023-06-26T14:20:06;7.03;;;5.87;;
5904;SDS011;2978;42.012;24.880;2023-06-26T14:22:37;5.90;;;5.13;;
5904;SDS011;2978;42.012;24.880;2023-06-26T14:25:07;6.77;;;4.70;;
5904;SDS011;2978;42.012;24.880;2023-06-26T14:27:33;7.03;;;4.97;;
5904;SDS011;2978;42.012;24.880;2023-06-26T14:29:59;8.00;;;5.80;;
5904;SDS011;2978;42.012;24.880;2023-06-26T14:32:24;8.73;;;5.33;;
5904;SDS011;2978;42.012;24.880;2023-06-26T14:34:49;7.03;;;4.43;;
5904;SDS011;2978;42.012;24.880;2023-06-26T14:37:15;5.70;;;4.00;;
5904;SDS011;2978;42.012;24.880;2023-06-26T14:39:41;7.10;;;5.20;;
5904;SDS011;2978;42.012;24.880;2023-06-26T14:42:07;8.33;;;4.60;;
5904;SDS011;2978;42.012;24.880;2023-06-26T14:44:32;7.90;;;4.67;;
5904;SDS011;2978;42.012;24.880;2023-06-26T14:46:58;8.13;;;4.40;;
5904;SDS011;2978;42.012;24.880;2023-06-26T14:49:23;8.97;;;3.90;;
5904;SDS011;2978;42.012;24.880;2023-06-26T14:51:48;6.23;;;4.40;;
5904;SDS011;2978;42.012;24.880;2023-06-26T14:54:14;11.20;;;5.00;;
5904;SDS011;2978;42.012;24.880;2023-06-26T14:56:39;7.60;;;4.70;;
5904;SDS011;2978;42.012;24.880;2023-06-26T14:59:05;8.73;;;5.00;;
5904;SDS011;2978;42.012;24.880;2023-06-26T15:01:32;8.60;;;5.50;;
5904;SDS011;2978;42.012;24.880;2023-06-26T15:03:58;12.73;;;5.20;;
5904;SDS011;2978;42.012;24.880;2023-06-26T15:06:23;8.13;;;5.40;;
5904;SDS011;2978;42.012;24.880;2023-06-26T15:08:49;8.30;;;5.90;;
5904;SDS011;2978;42.012;24.880;2023-06-26T15:11:14;10.53;;;5.17;;
5904;SDS011;2978;42.012;24.880;2023-06-26T15:13:40;24.63;;;6.77;;
5904;SDS011;2978;42.012;24.880;2023-06-26T15:16:05;8.80;;;5.93;;
5904;SDS011;2978;42.012;24.880;2023-06-26T15:18:30;10.87;;;5.47;;
5904;SDS011;2978;42.012;24.880;2023-06-26T15:20:56;14.00;;;5.40;;
5904;SDS011;2978;42.012;24.880;2023-06-26T15:23:21;11.60;;;5.87;;
5904;SDS011;2978;42.012;24.880;2023-06-26T15:25:47;15.07;;;6.00;;
5904;SDS011;2978;42.012;24.880;2023-06-26T15:28:12;18.23;;;6.40;;
5904;SDS011;2978;42.012;24.880;2023-06-26T15:30:37;27.70;;;7.20;;
5904;SDS011;2978;42.012;24.880;2023-06-26T15:33:03;19.83;;;6.20;;
5904;SDS011;2978;42.012;24.880;2023-06-26T15:35:30;18.57;;;6.50;;
5904;SDS011;2978;42.012;24.880;2023-06-26T15:37:56;26.10;;;7.50;;
5904;SDS011;2978;42.012;24.880;2023-06-26T15:40:22;35.50;;;7.17;;
5904;SDS011;2978;42.012;24.880;2023-06-26T15:42:48;24.03;;;6.13;;
5904;SDS011;2978;42.012;24.880;2023-06-26T15:45:15;34.77;;;7.47;;
5904;SDS011;2978;42.012;24.880;2023-06-26T15:47:46;42.33;;;7.63;;
5904;SDS011;2978;42.012;24.880;2023-06-26T15:50:12;25.90;;;7.23;;
5904;SDS011;2978;42.012;24.880;2023-06-26T15:52:38;27.10;;;7.27;;
5904;SDS011;2978;42.012;24.880;2023-06-26T15:55:03;24.27;;;7.37;;
5904;SDS011;2978;42.012;24.880;2023-06-26T15:57:30;21.43;;;5.93;;
5904;SDS011;2978;42.012;24.880;2023-06-26T15:59:56;24.03;;;6.90;;
5904;SDS011;2978;42.012;24.880;2023-06-26T16:02:22;21.90;;;8.07;;
5904;SDS011;2978;42.012;24.880;2023-06-26T16:04:47;29.30;;;6.93;;
5904;SDS011;2978;42.012;24.880;2023-06-26T16:07:13;20.30;;;6.30;;
5904;SDS011;2978;42.012;24.880;2023-06-26T16:09:38;11.93;;;6.17;;
5904;SDS011;2978;42.012;24.880;2023-06-26T16:12:04;19.43;;;5.90;;
5904;SDS011;2978;42.012;24.880;2023-06-26T16:14:29;22.47;;;5.90;;
5904;SDS011;2978;42.012;24.880;2023-06-26T16:16:55;15.80;;;6.17;;
5904;SDS011;2978;42.012;24.880;2023-06-26T16:19:20;15.93;;;6.83;;
5904;SDS011;2978;42.012;24.880;2023-06-26T16:21:46;11.70;;;5.90;;
5904;SDS011;2978;42.012;24.880;2023-06-26T16:24:11;24.30;;;7.30;;
5904;SDS011;2978;42.012;24.880;2023-06-26T16:26:37;24.67;;;7.00;;
5904;SDS011;2978;42.012;24.880;2023-06-26T16:29:04;10.50;;;6.40;;
5904;SDS011;2978;42.012;24.880;2023-06-26T16:31:29;23.33;;;6.80;;
5904;SDS011;2978;42.012;24.880;2023-06-26T16:33:54;18.20;;;6.10;;
5904;SDS011;2978;42.012;24.880;2023-06-26T16:36:20;15.27;;;5.93;;
5904;SDS011;2978;42.012;24.880;2023-06-26T16:38:45;14.93;;;6.10;;
5904;SDS011;2978;42.012;24.880;2023-06-26T16:41:12;13.00;;;5.60;;
5904;SDS011;2978;42.012;24.880;2023-06-26T16:43:38;19.87;;;5.90;;
5904;SDS011;2978;42.012;24.880;2023-06-26T16:46:03;15.97;;;5.70;;
5904;SDS011;2978;42.012;24.880;2023-06-26T16:48:28;15.20;;;6.10;;
5904;SDS011;2978;42.012;24.880;2023-06-26T16:50:54;17.87;;;6.37;;
5904;SDS011;2978;42.012;24.880;2023-06-26T16:53:19;19.63;;;6.50;;
5904;SDS011;2978;42.012;24.880;2023-06-26T16:55:45;19.17;;;6.50;;
5904;SDS011;2978;42.012;24.880;2023-06-26T16:58:10;19.27;;;5.90;;
5904;SDS011;2978;42.012;24.880;2023-06-26T17:00:36;26.67;;;7.80;;
5904;SDS011;2978;42.012;24.880;2023-06-26T17:03:05;15.67;;;6.13;;
5904;SDS011;2978;42.012;24.880;2023-06-26T17:05:30;25.33;;;7.20;;
5904;SDS011;2978;42.012;24.880;2023-06-26T17:07:56;15.23;;;6.30;;
5904;SDS011;2978;42.012;24.880;2023-06-26T17:10:22;19.40;;;7.63;;
5904;SDS011;2978;42.012;24.880;2023-06-26T17:12:47;23.73;;;6.63;;
5904;SDS011;2978;42.012;24.880;2023-06-26T17:15:13;21.23;;;6.70;;
5904;SDS011;2978;42.012;24.880;2023-06-26T17:17:38;17.07;;;6.83;;
5904;SDS011;2978;42.012;24.880;2023-06-26T17:20:04;19.83;;;6.80;;
5904;SDS011;2978;42.012;24.880;2023-06-26T17:22:34;24.07;;;7.07;;
5904;SDS011;2978;42.012;24.880;2023-06-26T17:25:00;19.17;;;6.37;;
5904;SDS011;2978;42.012;24.880;2023-06-26T17:27:29;12.07;;;6.10;;
5904;SDS011;2978;42.012;24.880;2023-06-26T17:29:55;28.77;;;6.57;;
5904;SDS011;2978;42.012;24.880;2023-06-26T17:32:21;13.97;;;5.87;;
5904;SDS011;2978;42.012;24.880;2023-06-26T17:34:47;9.67;;;6.17;;
5904;SDS011;2978;42.012;24.880;2023-06-26T17:37:12;11.10;;;5.30;;
5904;SDS011;2978;42.012;24.880;2023-06-26T17:39:38;20.60;;;6.33;;
5904;SDS011;2978;42.012;24.880;2023-06-26T17:42:03;13.00;;;4.93;;
5904;SDS011;2978;42.012;24.880;2023-06-26T17:44:29;16.30;;;4.50;;
5904;SDS011;2978;42.012;24.880;2023-06-26T17:46:55;14.40;;;4.73;;
5904;SDS011;2978;42.012;24.880;2023-06-26T17:49:21;17.27;;;6.27;;
5904;SDS011;2978;42.012;24.880;2023-06-26T17:51:47;14.70;;;5.27;;
5904;SDS011;2978;42.012;24.880;2023-06-26T17:54:13;23.80;;;5.50;;
5904;SDS011;2978;42.012;24.880;2023-06-26T17:56:38;20.00;;;5.37;;
5904;SDS011;2978;42.012;24.880;2023-06-26T17:59:04;17.20;;;5.67;;
5904;SDS011;2978;42.012;24.880;2023-06-26T18:01:30;20.73;;;6.00;;
5904;SDS011;2978;42.012;24.880;2023-06-26T18:03:56;22.23;;;5.73;;
5904;SDS011;2978;42.012;24.880;2023-06-26T18:06:21;21.73;;;5.97;;
5904;SDS011;2978;42.012;24.880;2023-06-26T18:08:48;16.10;;;5.47;;
5904;SDS011;2978;42.012;24.880;2023-06-26T18:11:14;13.43;;;4.80;;
5904;SDS011;2978;42.012;24.880;2023-06-26T18:13:39;17.50;;;5.17;;
5904;SDS011;2978;42.012;24.880;2023-06-26T18:16:04;14.87;;;5.20;;
5904;SDS011;2978;42.012;24.880;2023-06-26T18:18:32;12.50;;;5.57;;
5904;SDS011;2978;42.012;24.880;2023-06-26T18:20:57;15.87;;;5.57;;
5904;SDS011;2978;42.012;24.880;2023-06-26T18:23:22;11.80;;;5.13;;
5904;SDS011;2978;42.012;24.880;2023-06-26T18:25:48;18.60;;;5.20;;
5904;SDS011;2978;42.012;24.880;2023-06-26T18:28:13;19.80;;;6.60;;
5904;SDS011;2978;42.012;24.880;2023-06-26T18:30:39;23.17;;;6.37;;
5904;SDS011;2978;42.012;24.880;2023-06-26T18:33:04;26.17;;;7.00;;
5904;SDS011;2978;42.012;24.880;2023-06-26T18:35:30;22.93;;;7.03;;
5904;SDS011;2978;42.012;24.880;2023-06-26T18:37:55;24.33;;;6.83;;
5904;SDS011;2978;42.012;24.880;2023-06-26T18:40:21;10.07;;;5.70;;
5904;SDS011;2978;42.012;24.880;2023-06-26T18:42:46;14.13;;;6.50;;
5904;SDS011;2978;42.012;24.880;2023-06-26T18:45:12;18.70;;;6.37;;
5904;SDS011;2978;42.012;24.880;2023-06-26T18:47:38;19.33;;;6.13;;
5904;SDS011;2978;42.012;24.880;2023-06-26T18:50:04;12.20;;;6.40;;
5904;SDS011;2978;42.012;24.880;2023-06-26T18:52:31;13.57;;;6.80;;
5904;SDS011;2978;42.012;24.880;2023-06-26T18:54:57;12.30;;;6.47;;
5904;SDS011;2978;42.012;24.880;2023-06-26T18:57:22;11.10;;;6.00;;
5904;SDS011;2978;42.012;24.880;2023-06-26T18:59:47;20.63;;;5.70;;
5904;SDS011;2978;42.012;24.880;2023-06-26T19:02:14;16.40;;;5.60;;
5904;SDS011;2978;42.012;24.880;2023-06-26T19:04:39;20.33;;;6.40;;
5904;SDS011;2978;42.012;24.880;2023-06-26T19:07:05;20.43;;;6.47;;
5904;SDS011;2978;42.012;24.880;2023-06-26T19:09:30;13.70;;;5.80;;
5904;SDS011;2978;42.012;24.880;2023-06-26T19:11:56;7.17;;;5.77;;
5904;SDS011;2978;42.012;24.880;2023-06-26T19:14:21;7.40;;;6.00;;
5904;SDS011;2978;42.012;24.880;2023-06-26T19:16:47;16.27;;;6.03;;
5904;SDS011;2978;42.012;24.880;2023-06-26T19:19:12;13.00;;;5.40;;
5904;SDS011;2978;42.012;24.880;2023-06-26T19:21:38;11.37;;;6.60;;
5904;SDS011;2978;42.012;24.880;2023-06-26T19:24:03;11.73;;;5.30;;
5904;SDS011;2978;42.012;24.880;2023-06-26T19:26:28;8.40;;;5.47;;
5904;SDS011;2978;42.012;24.880;2023-06-26T19:28:54;17.53;;;6.10;;
5904;SDS011;2978;42.012;24.880;2023-06-26T19:31:20;20.97;;;5.80;;
5904;SDS011;2978;42.012;24.880;2023-06-26T19:33:45;11.40;;;5.60;;
5904;SDS011;2978;42.012;24.880;2023-06-26T19:36:11;11.00;;;6.20;;
5904;SDS011;2978;42.012;24.880;2023-06-26T19:38:39;10.43;;;5.07;;
5904;SDS011;2978;42.012;24.880;2023-06-26T19:41:05;11.63;;;5.30;;
5904;SDS011;2978;42.012;24.880;2023-06-26T19:43:30;12.00;;;4.80;;
5904;SDS011;2978;42.012;24.880;2023-06-26T19:45:56;7.90;;;4.97;;
5904;SDS011;2978;42.012;24.880;2023-06-26T19:48:21;8.23;;;5.27;;
5904;SDS011;2978;42.012;24.880;2023-06-26T19:50:46;11.03;;;5.90;;
5904;SDS011;2978;42.012;24.880;2023-06-26T19:53:12;8.90;;;4.73;;
5904;SDS011;2978;42.012;24.880;2023-06-26T19:55:38;11.47;;;4.90;;
5904;SDS011;2978;42.012;24.880;2023-06-26T19:58:03;13.20;;;5.23;;
5904;SDS011;2978;42.012;24.880;2023-06-26T20:00:28;7.60;;;4.80;;
5904;SDS011;2978;42.012;24.880;2023-06-26T20:02:56;9.63;;;5.17;;
5904;SDS011;2978;42.012;24.880;2023-06-26T20:05:21;7.97;;;4.80;;
5904;SDS011;2978;42.012;24.880;2023-06-26T20:07:47;10.10;;;4.93;;
5904;SDS011;2978;42.012;24.880;2023-06-26T20:10:12;11.17;;;4.73;;
5904;SDS011;2978;42.012;24.880;2023-06-26T20:12:38;12.60;;;5.23;;
5904;SDS011;2978;42.012;24.880;2023-06-26T20:15:04;7.17;;;5.63;;
5904;SDS011;2978;42.012;24.880;2023-06-26T20:17:30;13.53;;;5.97;;
5904;SDS011;2978;42.012;24.880;2023-06-26T20:19:56;10.57;;;4.70;;
5904;SDS011;2978;42.012;24.880;2023-06-26T20:22:21;7.30;;;5.00;;
5904;SDS011;2978;42.012;24.880;2023-06-26T20:24:46;14.63;;;5.20;;
5904;SDS011;2978;42.012;24.880;2023-06-26T20:27:12;16.73;;;5.93;;
5904;SDS011;2978;42.012;24.880;2023-06-26T20:29:37;9.90;;;4.97;;
5904;SDS011;2978;42.012;24.880;2023-06-26T20:32:03;10.13;;;5.47;;
5904;SDS011;2978;42.012;24.880;2023-06-26T20:34:29;9.13;;;5.20;;
5904;SDS011;2978;42.012;24.880;2023-06-26T20:36:54;8.40;;;4.80;;
5904;SDS011;2978;42.012;24.880;2023-06-26T20:39:20;13.60;;;5.57;;
5904;SDS011;2978;42.012;24.880;2023-06-26T20:41:45;5.77;;;5.17;;
5904;SDS011;2978;42.012;24.880;2023-06-26T20:44:11;20.33;;;5.40;;
5904;SDS011;2978;42.012;24.880;2023-06-26T20:46:37;11.17;;;5.17;;
5904;SDS011;2978;42.012;24.880;2023-06-26T20:49:03;10.73;;;4.60;;
5904;SDS011;2978;42.012;24.880;2023-06-26T20:51:28;8.47;;;3.73;;
5904;SDS011;2978;42.012;24.880;2023-06-26T20:53:54;11.40;;;4.33;;
5904;SDS011;2978;42.012;24.880;2023-06-26T20:56:21;12.23;;;5.07;;
5904;SDS011;2978;42.012;24.880;2023-06-26T20:58:47;16.30;;;4.70;;
5904;SDS011;2978;42.012;24.880;2023-06-26T21:01:13;10.40;;;5.33;;
5904;SDS011;2978;42.012;24.880;2023-06-26T21:03:38;9.23;;;4.67;;
5904;SDS011;2978;42.012;24.880;2023-06-26T21:06:04;11.00;;;4.90;;
5904;SDS011;2978;42.012;24.880;2023-06-26T21:08:29;10.17;;;4.73;;
5904;SDS011;2978;42.012;24.880;2023-06-26T21:10:55;13.07;;;4.87;;
5904;SDS011;2978;42.012;24.880;2023-06-26T21:13:20;12.67;;;4.83;;
5904;SDS011;2978;42.012;24.880;2023-06-26T21:15:45;7.80;;;4.80;;
5904;SDS011;2978;42.012;24.880;2023-06-26T21:18:11;12.77;;;4.60;;
5904;SDS011;2978;42.012;24.880;2023-06-26T21:20:38;11.67;;;5.27;;
5904;SDS011;2978;42.012;24.880;2023-06-26T21:23:04;7.83;;;4.33;;
5904;SDS011;2978;42.012;24.880;2023-06-26T21:25:29;11.50;;;4.77;;
5904;SDS011;2978;42.012;24.880;2023-06-26T21:27:55;7.90;;;4.73;;
5904;SDS011;2978;42.012;24.880;2023-06-26T21:30:20;7.30;;;5.00;;
5904;SDS011;2978;42.012;24.880;2023-06-26T21:32:46;10.80;;;5.33;;
5904;SDS011;2978;42.012;24.880;2023-06-26T21:35:11;14.23;;;4.63;;
5904;SDS011;2978;42.012;24.880;2023-06-26T21:37:39;8.03;;;4.77;;
5904;SDS011;2978;42.012;24.880;2023-06-26T21:40:05;6.37;;;4.43;;
5904;SDS011;2978;42.012;24.880;2023-06-26T21:42:31;11.70;;;5.13;;
5904;SDS011;2978;42.012;24.880;2023-06-26T21:44:57;10.80;;;4.50;;
5904;SDS011;2978;42.012;24.880;2023-06-26T21:47:22;9.73;;;4.27;;
5904;SDS011;2978;42.012;24.880;2023-06-26T21:49:48;11.83;;;4.50;;
5904;SDS011;2978;42.012;24.880;2023-06-26T21:52:13;9.40;;;4.13;;
5904;SDS011;2978;42.012;24.880;2023-06-26T21:54:38;13.30;;;4.83;;
5904;SDS011;2978;42.012;24.880;2023-06-26T21:57:04;10.50;;;4.53;;